Barlby, United Kingdom
Current Conditions -  °F | °C
As of 4:50 PM on Tuesday 27 Jan 2015 (Local Time) from EGXU Reporting Station
Overcast Overcast  
Wind Chill: 38°   Ceiling: 2200
Heat Index: 45°   Visibility: 6mi
Dew Point: 37°   Wind: 13mph
Humidity: 76%   Direction: 250°WSW
Pressure: 30.12"   Gusts: NA
Location:  53.8°N, 1.04°W
Report Text: EGXU 271650Z 25011KT 9999 OVC022 07/03 Q1020 WHT NOSIG
Loading
Personal Weather Stations






























Interactive Weather Map New forecast layout! Learn more

10-Day Weather Forecast

Advertisements
Track Severe Weather on mobile